createdAt,value
2019-02-05T00:00:16.726Z,1022.06
2019-02-05T00:01:16.715Z,1022.04
2019-02-05T00:02:16.705Z,1022.07
2019-02-05T00:03:16.693Z,1022.09
2019-02-05T00:04:16.683Z,1022.07
2019-02-05T00:05:16.672Z,1022.06
2019-02-05T00:06:16.666Z,1022.07
2019-02-05T00:07:16.655Z,1022.08
2019-02-05T00:08:16.643Z,1022.17
2019-02-05T00:09:16.634Z,1022.07
2019-02-05T00:10:16.620Z,1022.15
2019-02-05T00:11:16.611Z,1022.12
2019-02-05T00:12:16.599Z,1022.10
2019-02-05T00:13:16.588Z,1022.07
2019-02-05T00:14:16.578Z,1022.12
2019-02-05T00:15:16.568Z,1022.16
2019-02-05T00:16:16.558Z,1022.14
2019-02-05T00:17:16.548Z,1022.17
2019-02-05T00:18:16.536Z,1022.17
2019-02-05T00:19:16.526Z,1022.21
2019-02-05T00:20:16.516Z,1022.20
2019-02-05T00:21:16.507Z,1022.18
2019-02-05T00:22:16.495Z,1022.14
2019-02-05T00:23:16.484Z,1022.18
2019-02-05T00:24:16.474Z,1022.17
2019-02-05T00:25:16.465Z,1022.11
2019-02-05T00:26:16.452Z,1022.16
2019-02-05T00:27:16.444Z,1022.11
2019-02-05T00:28:16.431Z,1022.12
2019-02-05T00:29:16.421Z,1022.11
2019-02-05T00:30:16.408Z,1022.11
2019-02-05T00:31:16.402Z,1022.07
2019-02-05T00:32:16.401Z,1022.06
2019-02-05T00:33:16.380Z,1022.08
2019-02-05T00:34:16.368Z,1022.09
2019-02-05T00:35:16.357Z,1022.03
2019-02-05T00:36:16.350Z,1022.06
2019-02-05T00:37:16.338Z,1022.08
2019-02-05T00:38:16.324Z,1022.06
2019-02-05T00:39:16.317Z,1021.99
2019-02-05T00:40:16.306Z,1021.99
2019-02-05T00:41:16.295Z,1022.00
2019-02-05T00:42:16.282Z,1021.98
2019-02-05T00:43:16.275Z,1021.98
2019-02-05T00:44:16.265Z,1021.98
2019-02-05T00:45:16.253Z,1022.02
2019-02-05T00:46:16.242Z,1021.95
2019-02-05T00:47:16.231Z,1021.92
2019-02-05T00:48:16.220Z,1021.93
2019-02-05T00:49:16.209Z,1021.89
2019-02-05T00:50:16.201Z,1021.90
2019-02-05T00:51:16.190Z,1021.96
2019-02-05T00:52:16.178Z,1021.90
2019-02-05T00:53:16.170Z,1021.94
2019-02-05T00:54:16.158Z,1021.92
2019-02-05T00:55:16.149Z,1021.90
2019-02-05T00:56:17.673Z,1021.91
2019-02-05T00:57:16.126Z,1021.92
2019-02-05T00:58:16.116Z,1021.86
2019-02-05T00:59:16.105Z,1021.92
2019-02-05T01:00:16.097Z,1021.85
2019-02-05T01:01:16.088Z,1021.86
2019-02-05T01:02:16.075Z,1021.86
2019-02-05T01:03:16.069Z,1021.85
2019-02-05T01:04:16.054Z,1021.80
2019-02-05T01:05:16.043Z,1021.83
2019-02-05T01:06:16.034Z,1021.76
2019-02-05T01:07:16.023Z,1021.77
2019-02-05T01:08:16.012Z,1021.79
2019-02-05T01:09:16.002Z,1021.81
2019-02-05T01:10:15.990Z,1021.78
2019-02-05T01:11:15.982Z,1021.77
2019-02-05T01:12:15.971Z,1021.81
2019-02-05T01:13:15.961Z,1021.74
2019-02-05T01:14:15.954Z,1021.75
2019-02-05T01:15:15.937Z,1021.76
2019-02-05T01:16:15.927Z,1021.73
2019-02-05T01:17:15.918Z,1021.71
2019-02-05T01:18:15.907Z,1021.68
2019-02-05T01:19:15.897Z,1021.69
2019-02-05T01:20:15.886Z,1021.71
2019-02-05T01:21:15.875Z,1021.71
2019-02-05T01:22:15.869Z,1021.69
2019-02-05T01:23:15.854Z,1021.62
2019-02-05T01:24:15.844Z,1021.63
2019-02-05T01:25:15.835Z,1021.59
2019-02-05T01:26:15.824Z,1021.57
2019-02-05T01:27:15.811Z,1021.59
2019-02-05T01:28:15.801Z,1021.57
2019-02-05T01:29:15.790Z,1021.55
2019-02-05T01:30:15.782Z,1021.54
2019-02-05T01:31:15.772Z,1021.52
2019-02-05T01:32:15.762Z,1021.58
2019-02-05T01:33:15.750Z,1021.55
2019-02-05T01:34:15.740Z,1021.56
2019-02-05T01:35:15.726Z,1021.47
2019-02-05T01:36:15.719Z,1021.52
2019-02-05T01:37:15.708Z,1021.49
2019-02-05T01:38:15.697Z,1021.49
2019-02-05T01:39:15.688Z,1021.48
2019-02-05T01:40:15.676Z,1021.45
2019-02-05T01:41:15.667Z,1021.47
2019-02-05T01:42:15.655Z,1021.46
2019-02-05T01:43:15.644Z,1021.38
2019-02-05T01:44:15.633Z,1021.43
2019-02-05T01:45:15.624Z,1021.36
2019-02-05T01:46:15.615Z,1021.35
2019-02-05T01:47:15.602Z,1021.33
2019-02-05T01:48:15.592Z,1021.32
2019-02-05T01:49:15.581Z,1021.38
2019-02-05T01:50:15.570Z,1021.43
2019-02-05T01:51:15.559Z,1021.34
2019-02-05T01:52:15.552Z,1021.38
2019-02-05T01:53:15.540Z,1021.29
2019-02-05T01:54:15.530Z,1021.33
2019-02-05T01:55:15.518Z,1021.40
2019-02-05T01:56:15.508Z,1021.37
2019-02-05T01:57:15.496Z,1021.29
2019-02-05T01:58:15.486Z,1021.23
2019-02-05T01:59:15.475Z,1021.30
2019-02-05T02:00:15.468Z,1021.28
2019-02-05T02:01:15.455Z,1021.28
2019-02-05T02:02:15.445Z,1021.25
2019-02-05T02:03:15.435Z,1021.21
2019-02-05T02:04:15.424Z,1021.22
2019-02-05T02:05:15.415Z,1021.18
2019-02-05T02:06:15.404Z,1021.22
2019-02-05T02:07:15.392Z,1021.14
2019-02-05T02:08:15.382Z,1021.16
2019-02-05T02:09:15.372Z,1021.12
2019-02-05T02:10:15.359Z,1021.14
2019-02-05T02:11:15.350Z,1021.10
2019-02-05T02:12:15.340Z,1021.10
2019-02-05T02:13:15.327Z,1021.09
2019-02-05T02:14:15.317Z,1021.03
2019-02-05T02:15:15.307Z,1021.04
2019-02-05T02:16:15.298Z,1021.06
2019-02-05T02:17:15.289Z,1021.01
2019-02-05T02:18:15.279Z,1021.03
2019-02-05T02:19:15.267Z,1020.99
2019-02-05T02:20:15.256Z,1020.99
2019-02-05T02:21:15.245Z,1021.01
2019-02-05T02:22:15.235Z,1020.95
2019-02-05T02:23:15.227Z,1021.09
2019-02-05T02:24:15.214Z,1021.01
2019-02-05T02:25:15.206Z,1021.03
2019-02-05T02:26:15.193Z,1021.05
2019-02-05T02:27:15.182Z,1021.03
2019-02-05T02:28:15.170Z,1021.07
2019-02-05T02:29:15.162Z,1021.05
2019-02-05T02:30:15.152Z,1021.05
2019-02-05T02:31:15.144Z,1021.07
2019-02-05T02:32:15.129Z,1021.07
2019-02-05T02:33:15.119Z,1021.03
2019-02-05T02:34:15.109Z,1021.02
2019-02-05T02:35:15.105Z,1021.03
2019-02-05T02:36:15.087Z,1021.01
2019-02-05T02:37:15.078Z,1021.03
2019-02-05T02:38:15.068Z,1021.01
2019-02-05T02:39:15.056Z,1021.00
2019-02-05T02:40:15.047Z,1020.97
2019-02-05T02:41:15.037Z,1020.99
2019-02-05T02:42:15.024Z,1021.06
2019-02-05T02:43:15.014Z,1021.05
2019-02-05T02:44:15.004Z,1021.04
2019-02-05T02:45:14.993Z,1021.08
2019-02-05T02:46:15.058Z,1021.02
2019-02-05T02:47:14.976Z,1021.01
2019-02-05T02:48:14.963Z,1021.02
2019-02-05T02:49:14.951Z,1021.05
2019-02-05T02:50:14.944Z,1021.02
2019-02-05T02:51:15.049Z,1021.07
2019-02-05T02:52:14.920Z,1021.04
2019-02-05T02:53:14.911Z,1021.05
2019-02-05T02:54:14.899Z,1021.04
2019-02-05T02:55:14.888Z,1021.00
2019-02-05T02:56:14.880Z,1021.07
2019-02-05T02:57:14.868Z,1021.03
2019-02-05T02:58:14.858Z,1021.06
2019-02-05T02:59:14.846Z,1021.03
2019-02-05T03:00:14.838Z,1021.03
2019-02-05T03:01:14.827Z,1021.04
2019-02-05T03:02:14.818Z,1021.06
2019-02-05T03:03:14.805Z,1021.08
2019-02-05T03:04:14.795Z,1021.12
2019-02-05T03:05:14.783Z,1021.18
2019-02-05T03:06:14.773Z,1021.17
2019-02-05T03:07:14.764Z,1021.13
2019-02-05T03:08:14.753Z,1021.15
2019-02-05T03:09:14.744Z,1021.16
2019-02-05T03:10:14.731Z,1021.18
2019-02-05T03:11:14.726Z,1021.22
2019-02-05T03:12:14.711Z,1021.28
2019-02-05T03:13:14.701Z,1021.18
2019-02-05T03:14:14.690Z,1021.25
2019-02-05T03:15:14.678Z,1021.20
2019-02-05T03:16:14.668Z,1021.19
2019-02-05T03:17:14.661Z,1021.15
2019-02-05T03:18:14.647Z,1021.15
2019-02-05T03:19:14.636Z,1021.21
2019-02-05T03:20:14.627Z,1021.18
2019-02-05T03:21:14.615Z,1021.12
2019-02-05T03:22:14.604Z,1021.19
2019-02-05T03:23:14.595Z,1021.15
2019-02-05T03:24:14.585Z,1021.08
2019-02-05T03:25:14.579Z,1021.06
2019-02-05T03:26:14.568Z,1021.08
2019-02-05T03:27:18.139Z,1021.08
2019-02-05T03:28:14.544Z,1021.04
2019-02-05T03:29:14.533Z,1021.06
2019-02-05T03:30:14.522Z,1021.06
2019-02-05T03:31:14.512Z,1021.06
2019-02-05T03:32:14.506Z,1021.03
2019-02-05T03:33:14.492Z,1021.01
2019-02-05T03:34:14.482Z,1020.97
2019-02-05T03:35:14.471Z,1020.98
2019-02-05T03:36:14.459Z,1021.05
2019-02-05T03:37:14.447Z,1020.98
2019-02-05T03:38:14.440Z,1021.05
2019-02-05T03:39:14.426Z,1021.07
2019-02-05T03:40:14.417Z,1021.06
2019-02-05T03:41:14.404Z,1021.05
2019-02-05T03:42:14.394Z,1021.07
2019-02-05T03:43:14.384Z,1021.10
2019-02-05T03:44:14.379Z,1021.06
2019-02-05T03:45:14.364Z,1021.04
2019-02-05T03:46:14.475Z,1021.04
2019-02-05T03:47:14.343Z,1021.07
2019-02-05T03:48:14.333Z,1021.14
2019-02-05T03:49:14.320Z,1021.06
2019-02-05T03:50:14.310Z,1021.07
2019-02-05T03:51:14.300Z,1021.07
2019-02-05T03:52:14.289Z,1021.03
2019-02-05T03:53:14.279Z,1021.01
2019-02-05T03:54:14.271Z,1021.02
2019-02-05T03:55:14.260Z,1021.02
2019-02-05T03:56:14.248Z,1021.02
2019-02-05T03:57:14.240Z,1021.02
2019-02-05T03:58:14.228Z,1021.00
2019-02-05T03:59:14.217Z,1020.96
2019-02-05T04:00:14.206Z,1020.97
2019-02-05T04:01:14.196Z,1020.98
2019-02-05T04:02:14.190Z,1020.98
2019-02-05T04:03:14.201Z,1020.97
2019-02-05T04:04:14.163Z,1020.95
2019-02-05T04:05:14.153Z,1020.95
2019-02-05T04:06:14.142Z,1020.96
2019-02-05T04:07:14.137Z,1020.96
2019-02-05T04:08:14.123Z,1020.96
2019-02-05T04:09:14.110Z,1020.91
2019-02-05T04:10:14.100Z,1020.94
2019-02-05T04:11:14.090Z,1020.98
2019-02-05T04:12:14.082Z,1020.98
2019-02-05T04:13:14.070Z,1020.97
2019-02-05T04:14:14.058Z,1021.01
2019-02-05T04:15:14.061Z,1021.00
2019-02-05T04:16:14.036Z,1020.99
2019-02-05T04:17:14.027Z,1020.97
2019-02-05T04:18:14.017Z,1021.01
2019-02-05T04:19:14.007Z,1020.93
2019-02-05T04:20:13.994Z,1021.00
2019-02-05T04:21:13.985Z,1020.96
2019-02-05T04:22:13.974Z,1021.01
2019-02-05T04:23:13.966Z,1020.99
2019-02-05T04:24:13.965Z,1021.02
2019-02-05T04:25:13.944Z,1020.96
2019-02-05T04:26:13.933Z,1020.93
2019-02-05T04:27:13.922Z,1020.92
2019-02-05T04:28:13.910Z,1020.93
2019-02-05T04:29:13.901Z,1020.94
2019-02-05T04:30:13.890Z,1020.90
2019-02-05T04:31:13.879Z,1020.90
2019-02-05T04:32:13.879Z,1020.95
2019-02-05T04:33:13.862Z,1020.90
2019-02-05T04:34:13.847Z,1020.83
2019-02-05T04:35:13.837Z,1020.86
2019-02-05T04:36:13.826Z,1020.87
2019-02-05T04:37:13.815Z,1020.77
2019-02-05T04:38:13.805Z,1020.76
2019-02-05T04:39:13.809Z,1020.71
2019-02-05T04:40:13.785Z,1020.73
2019-02-05T04:41:13.775Z,1020.76
2019-02-05T04:42:13.764Z,1020.74
2019-02-05T04:43:13.754Z,1020.68
2019-02-05T04:44:13.743Z,1020.72
2019-02-05T04:45:13.732Z,1020.72
2019-02-05T04:46:13.722Z,1020.70
2019-02-05T04:47:13.712Z,1020.71
2019-02-05T04:48:13.700Z,1020.72
2019-02-05T04:49:13.691Z,1020.77
2019-02-05T04:50:13.683Z,1020.76
2019-02-05T04:51:13.668Z,1020.77
2019-02-05T04:52:13.657Z,1020.84
2019-02-05T04:53:13.647Z,1020.93
2019-02-05T04:54:13.637Z,1020.93
2019-02-05T04:55:13.627Z,1020.96
2019-02-05T04:56:13.618Z,1020.90
2019-02-05T04:57:13.607Z,1021.03
2019-02-05T04:58:13.594Z,1021.03
2019-02-05T04:59:13.587Z,1021.03
2019-02-05T05:00:13.573Z,1021.01
2019-02-05T05:01:13.563Z,1021.01
2019-02-05T05:02:13.554Z,1020.94
2019-02-05T05:03:13.547Z,1020.99
2019-02-05T05:04:13.534Z,1020.97
2019-02-05T05:05:13.522Z,1020.96
2019-02-05T05:06:13.511Z,1020.93
2019-02-05T05:07:13.503Z,1020.98
2019-02-05T05:08:13.492Z,1021.01
2019-02-05T05:09:13.479Z,1021.04
2019-02-05T05:10:13.472Z,1020.92
2019-02-05T05:11:13.458Z,1020.88
2019-02-05T05:12:13.449Z,1020.91
2019-02-05T05:13:13.439Z,1020.85
2019-02-05T05:14:13.430Z,1020.83
2019-02-05T05:15:13.425Z,1020.83
2019-02-05T05:16:13.411Z,1020.84
2019-02-05T05:17:13.405Z,1020.83
2019-02-05T05:18:15.560Z,1020.80
2019-02-05T05:19:13.375Z,1020.78
2019-02-05T05:20:13.446Z,1020.84
2019-02-05T05:21:13.357Z,1020.79
2019-02-05T05:22:13.345Z,1020.77
2019-02-05T05:23:13.336Z,1020.72
2019-02-05T05:24:13.329Z,1020.81
2019-02-05T05:25:13.313Z,1020.82
2019-02-05T05:26:13.302Z,1020.83
2019-02-05T05:27:13.291Z,1020.83
2019-02-05T05:28:13.281Z,1020.82
2019-02-05T05:29:13.270Z,1020.88
2019-02-05T05:30:13.263Z,1020.85
2019-02-05T05:31:13.251Z,1020.78
2019-02-05T05:32:13.238Z,1020.79
2019-02-05T05:33:13.230Z,1020.74
2019-02-05T05:34:13.217Z,1020.75
2019-02-05T05:35:13.207Z,1020.70
2019-02-05T05:36:13.197Z,1020.66
2019-02-05T05:37:13.187Z,1020.67
2019-02-05T05:38:13.284Z,1020.71
2019-02-05T05:39:13.165Z,1020.66
2019-02-05T05:40:13.154Z,1020.67
2019-02-05T05:41:13.145Z,1020.67
2019-02-05T05:42:13.133Z,1020.62
2019-02-05T05:43:13.125Z,1020.64
2019-02-05T05:44:13.112Z,1020.63
2019-02-05T05:45:13.108Z,1020.62
2019-02-05T05:46:13.091Z,1020.55
2019-02-05T05:47:13.082Z,1020.59
2019-02-05T05:48:13.071Z,1020.60
2019-02-05T05:49:13.065Z,1020.61
2019-02-05T05:50:13.050Z,1020.58
2019-02-05T05:51:13.040Z,1020.59
2019-02-05T05:52:13.028Z,1020.54
2019-02-05T05:53:13.021Z,1020.51
2019-02-05T05:54:13.012Z,1020.57
2019-02-05T05:55:13.088Z,1020.56
2019-02-05T05:56:12.986Z,1020.60
2019-02-05T05:57:12.976Z,1020.60
2019-02-05T05:58:22.341Z,1020.64
2019-02-05T05:59:13.955Z,1020.74
2019-02-05T06:00:12.948Z,1020.68
2019-02-05T06:01:12.934Z,1020.73
2019-02-05T06:02:12.924Z,1020.66
2019-02-05T06:03:12.913Z,1020.74
2019-02-05T06:04:12.904Z,1020.71
2019-02-05T06:05:12.893Z,1020.71
2019-02-05T06:06:12.883Z,1020.71
2019-02-05T06:07:12.883Z,1020.71
2019-02-05T06:08:12.862Z,1020.68
2019-02-05T06:09:12.850Z,1020.68
2019-02-05T06:10:12.842Z,1020.69
2019-02-05T06:11:12.831Z,1020.66
2019-02-05T06:12:12.819Z,1020.77
2019-02-05T06:13:12.807Z,1020.74
2019-02-05T06:14:12.799Z,1020.77
2019-02-05T06:15:12.792Z,1020.74
2019-02-05T06:16:12.776Z,1020.77
2019-02-05T06:17:12.766Z,1020.81
2019-02-05T06:18:12.756Z,1020.85
2019-02-05T06:19:12.746Z,1020.84
2019-02-05T06:20:12.736Z,1020.84
2019-02-05T06:21:13.690Z,1020.87
2019-02-05T06:22:12.716Z,1020.83
2019-02-05T06:23:12.704Z,1020.85
2019-02-05T06:24:12.695Z,1020.87
2019-02-05T06:25:12.686Z,1020.90
2019-02-05T06:26:12.672Z,1020.89
2019-02-05T06:27:12.662Z,1020.86
2019-02-05T06:28:12.651Z,1020.92
2019-02-05T06:29:12.642Z,1020.85
2019-02-05T06:30:12.631Z,1020.83
2019-02-05T06:31:12.621Z,1020.85
2019-02-05T06:32:12.610Z,1020.86
2019-02-05T06:33:12.608Z,1020.87
2019-02-05T06:34:12.589Z,1020.80
2019-02-05T06:35:12.576Z,1020.85
2019-02-05T06:36:12.567Z,1020.86
2019-02-05T06:37:12.558Z,1020.88
2019-02-05T06:38:12.551Z,1020.81
2019-02-05T06:39:12.536Z,1020.89
2019-02-05T06:40:12.526Z,1020.86
2019-02-05T06:41:12.516Z,1020.80
2019-02-05T06:42:12.503Z,1020.84
2019-02-05T06:43:12.495Z,1020.88
2019-02-05T06:44:12.498Z,1020.88
2019-02-05T06:45:12.474Z,1020.86
2019-02-05T06:46:12.465Z,1020.89
2019-02-05T06:47:12.451Z,1020.92
2019-02-05T06:48:12.442Z,1020.93
2019-02-05T06:49:12.431Z,1020.93
2019-02-05T06:50:12.424Z,1020.98
2019-02-05T06:51:12.411Z,1020.94
2019-02-05T06:52:12.400Z,1020.98
2019-02-05T06:53:12.389Z,1020.98
2019-02-05T06:54:12.379Z,1020.95
2019-02-05T06:55:12.369Z,1020.93
2019-02-05T06:56:12.358Z,1020.93
2019-02-05T06:57:12.348Z,1020.96
2019-02-05T06:58:12.338Z,1020.97
2019-02-05T06:59:12.324Z,1020.97
2019-02-05T07:00:12.315Z,1020.99
2019-02-05T07:01:12.305Z,1021.02
2019-02-05T07:02:12.294Z,1020.99
2019-02-05T07:03:12.284Z,1020.96
2019-02-05T07:04:12.273Z,1021.02
2019-02-05T07:05:12.263Z,1021.02
2019-02-05T07:06:12.255Z,1021.11
2019-02-05T07:07:12.241Z,1021.11
2019-02-05T07:08:12.233Z,1021.08
2019-02-05T07:09:12.221Z,1021.07
2019-02-05T07:10:12.331Z,1021.14
2019-02-05T07:11:12.278Z,1021.19
2019-02-05T07:12:12.190Z,1021.20
2019-02-05T07:13:12.234Z,1021.20
2019-02-05T07:14:12.169Z,1021.20
2019-02-05T07:15:12.157Z,1021.24
2019-02-05T07:16:12.146Z,1021.28
2019-02-05T07:17:12.135Z,1021.20
2019-02-05T07:18:12.126Z,1021.18
2019-02-05T07:19:12.117Z,1021.25
2019-02-05T07:20:12.105Z,1021.19
2019-02-05T07:21:12.095Z,1021.21
2019-02-05T07:22:12.085Z,1021.28
2019-02-05T07:23:12.075Z,1021.24
2019-02-05T07:24:12.064Z,1021.23
2019-02-05T07:25:12.054Z,1021.22
2019-02-05T07:26:12.043Z,1021.24
2019-02-05T07:27:12.033Z,1021.31
2019-02-05T07:28:12.020Z,1021.31
2019-02-05T07:29:12.010Z,1021.39
2019-02-05T07:30:11.998Z,1021.40
2019-02-05T07:31:11.989Z,1021.39
2019-02-05T07:32:11.984Z,1021.37
2019-02-05T07:33:11.970Z,1021.35
2019-02-05T07:34:11.958Z,1021.27
2019-02-05T07:35:11.947Z,1021.33
2019-02-05T07:36:11.937Z,1021.33
2019-02-05T07:37:11.932Z,1021.31
2019-02-05T07:38:11.917Z,1021.36
2019-02-05T07:39:11.907Z,1021.41
2019-02-05T07:40:11.896Z,1021.35
2019-02-05T07:41:11.884Z,1021.32
2019-02-05T07:42:11.875Z,1021.35
2019-02-05T07:43:11.864Z,1021.36
2019-02-05T07:44:11.853Z,1021.33
2019-02-05T07:45:11.842Z,1021.34
2019-02-05T07:46:11.831Z,1021.32
2019-02-05T07:47:11.820Z,1021.34
2019-02-05T07:48:11.810Z,1021.34
2019-02-05T07:49:11.807Z,1021.34
2019-02-05T07:50:11.791Z,1021.42
2019-02-05T07:51:11.782Z,1021.44
2019-02-05T07:52:11.771Z,1021.31
2019-02-05T07:53:11.756Z,1021.36
2019-02-05T07:54:11.754Z,1021.35
2019-02-05T07:55:11.738Z,1021.42
2019-02-05T07:56:12.935Z,1021.38
2019-02-05T07:57:11.716Z,1021.39
2019-02-05T07:58:11.707Z,1021.33
2019-02-05T07:59:11.695Z,1021.40
2019-02-05T08:00:11.685Z,1021.33
2019-02-05T08:01:11.673Z,1021.33
2019-02-05T08:02:11.666Z,1021.36
2019-02-05T08:03:11.654Z,1021.39
2019-02-05T08:04:11.642Z,1021.37
2019-02-05T08:05:11.632Z,1021.43
2019-02-05T08:06:11.622Z,1021.43
2019-02-05T08:07:11.613Z,1021.39
2019-02-05T08:08:11.602Z,1021.38
2019-02-05T08:09:11.590Z,1021.40
2019-02-05T08:10:11.580Z,1021.44
2019-02-05T08:11:11.572Z,1021.42
2019-02-05T08:12:11.557Z,1021.49
2019-02-05T08:13:11.547Z,1021.49
2019-02-05T08:14:11.537Z,1021.51
2019-02-05T08:15:11.530Z,1021.55
2019-02-05T08:16:11.515Z,1021.52
2019-02-05T08:17:11.506Z,1021.55
2019-02-05T08:18:11.495Z,1021.54
2019-02-05T08:19:11.486Z,1021.54
2019-02-05T08:20:11.474Z,1021.52
2019-02-05T08:21:11.465Z,1021.56
2019-02-05T08:22:11.451Z,1021.54
2019-02-05T08:23:11.447Z,1021.53
2019-02-05T08:24:11.432Z,1021.52
2019-02-05T08:25:11.421Z,1021.46
2019-02-05T08:26:11.409Z,1021.53
2019-02-05T08:27:11.401Z,1021.56
2019-02-05T08:28:11.394Z,1021.51
2019-02-05T08:29:21.371Z,1021.53
2019-02-05T08:30:12.369Z,1021.47
2019-02-05T08:31:11.357Z,1021.46
2019-02-05T08:32:11.346Z,1021.51
2019-02-05T08:33:11.339Z,1021.52
2019-02-05T08:34:11.325Z,1021.54
2019-02-05T08:35:11.314Z,1021.54
2019-02-05T08:36:11.304Z,1021.50
2019-02-05T08:37:11.296Z,1021.50
2019-02-05T08:38:11.284Z,1021.50
2019-02-05T08:39:11.274Z,1021.49
2019-02-05T08:40:11.262Z,1021.56
2019-02-05T08:41:11.253Z,1021.57
2019-02-05T08:42:11.241Z,1021.59
2019-02-05T08:43:11.232Z,1021.58
2019-02-05T08:44:11.220Z,1021.59
2019-02-05T08:45:14.172Z,1021.58
2019-02-05T08:46:11.207Z,1021.56
2019-02-05T08:47:11.188Z,1021.55
2019-02-05T08:48:11.178Z,1021.49
2019-02-05T08:49:11.170Z,1021.54
2019-02-05T08:50:11.157Z,1021.52
2019-02-05T08:51:11.146Z,1021.53
2019-02-05T08:52:11.136Z,1021.58
2019-02-05T08:53:11.126Z,1021.59
2019-02-05T08:54:11.113Z,1021.57
2019-02-05T08:55:11.107Z,1021.58
2019-02-05T08:56:11.096Z,1021.60
2019-02-05T08:57:11.085Z,1021.59
2019-02-05T08:58:11.078Z,1021.61
2019-02-05T08:59:11.062Z,1021.61
2019-02-05T09:00:11.050Z,1021.62
2019-02-05T09:01:14.277Z,1021.60
2019-02-05T09:02:11.032Z,1021.62
2019-02-05T09:03:11.022Z,1021.66
2019-02-05T09:04:11.010Z,1021.65
2019-02-05T09:05:11.000Z,1021.62
2019-02-05T09:06:10.988Z,1021.64
2019-02-05T09:07:10.977Z,1021.73
2019-02-05T09:08:10.967Z,1021.71
2019-02-05T09:09:10.957Z,1021.75
2019-02-05T09:10:10.950Z,1021.80
2019-02-05T09:11:10.935Z,1021.75
2019-02-05T09:12:10.925Z,1021.69
2019-02-05T09:13:10.913Z,1021.70
2019-02-05T09:14:12.372Z,1021.74
2019-02-05T09:15:10.892Z,1021.78
2019-02-05T09:16:10.883Z,1021.78
2019-02-05T09:17:10.872Z,1021.82
2019-02-05T09:18:10.864Z,1021.77
2019-02-05T09:19:10.854Z,1021.85
2019-02-05T09:20:10.840Z,1021.80
2019-02-05T09:21:10.831Z,1021.82
2019-02-05T09:22:10.820Z,1021.79
2019-02-05T09:23:10.808Z,1021.74
2019-02-05T09:24:10.798Z,1021.76
2019-02-05T09:25:10.786Z,1021.77
2019-02-05T09:26:10.779Z,1021.74
2019-02-05T09:27:10.766Z,1021.83
2019-02-05T09:28:10.754Z,1021.82
2019-02-05T09:29:10.744Z,1021.83
2019-02-05T09:30:10.734Z,1021.80
2019-02-05T09:31:10.725Z,1021.73
2019-02-05T09:32:10.713Z,1021.87
2019-02-05T09:33:10.701Z,1021.86
2019-02-05T09:34:10.695Z,1021.90
2019-02-05T09:35:10.682Z,1021.85
2019-02-05T09:36:10.671Z,1021.71
2019-02-05T09:37:10.660Z,1021.79
2019-02-05T09:38:10.648Z,1021.85
2019-02-05T09:39:10.639Z,1021.90
2019-02-05T09:40:10.629Z,1021.87
2019-02-05T09:41:10.618Z,1021.92
2019-02-05T09:42:10.607Z,1021.83
2019-02-05T09:43:10.606Z,1021.82
2019-02-05T09:44:10.586Z,1021.80
2019-02-05T09:45:10.576Z,1021.81
2019-02-05T09:46:10.566Z,1021.80
2019-02-05T09:47:10.556Z,1021.82
2019-02-05T09:48:10.655Z,1021.78
2019-02-05T09:49:10.533Z,1021.83
2019-02-05T09:50:10.522Z,1021.88
2019-02-05T09:51:10.511Z,1021.84
2019-02-05T09:52:10.500Z,1021.80
2019-02-05T09:53:10.497Z,1021.81
2019-02-05T09:54:10.482Z,1021.86
2019-02-05T09:55:10.470Z,1021.85
2019-02-05T09:56:10.460Z,1021.85
2019-02-05T09:57:10.448Z,1021.86
2019-02-05T09:58:10.438Z,1021.88
2019-02-05T09:59:10.428Z,1021.86
2019-02-05T10:00:10.417Z,1021.89
2019-02-05T10:01:10.407Z,1021.93
2019-02-05T10:02:10.395Z,1021.93
2019-02-05T10:03:10.387Z,1021.86
2019-02-05T10:04:10.374Z,1021.96
2019-02-05T10:05:10.363Z,1021.96
2019-02-05T10:06:10.355Z,1022.02
2019-02-05T10:07:10.344Z,1022.02
2019-02-05T10:08:10.334Z,1021.98
2019-02-05T10:09:10.323Z,1022.07
2019-02-05T10:10:10.311Z,1022.06
2019-02-05T10:11:10.301Z,1022.05
2019-02-05T10:12:10.292Z,1022.10
2019-02-05T10:13:10.281Z,1022.14
2019-02-05T10:14:10.269Z,1022.11
2019-02-05T10:15:10.258Z,1022.09
2019-02-05T10:16:10.249Z,1022.08
2019-02-05T10:17:10.237Z,1022.12
2019-02-05T10:18:10.228Z,1022.13
2019-02-05T10:19:10.216Z,1022.05
2019-02-05T10:20:10.206Z,1022.08
2019-02-05T10:21:10.194Z,1022.07
2019-02-05T10:22:10.189Z,1022.04
2019-02-05T10:23:10.174Z,1022.09
2019-02-05T10:24:10.170Z,1022.04
2019-02-05T10:25:10.154Z,1022.02
2019-02-05T10:26:10.144Z,1022.07
2019-02-05T10:27:10.132Z,1022.08
2019-02-05T10:28:10.121Z,1022.05
2019-02-05T10:29:10.110Z,1022.02
2019-02-05T10:30:10.100Z,1022.03
2019-02-05T10:31:10.089Z,1021.99
2019-02-05T10:32:10.081Z,1022.02
2019-02-05T10:33:10.067Z,1022.03
2019-02-05T10:34:10.058Z,1022.02
2019-02-05T10:35:10.152Z,1022.06
2019-02-05T10:36:10.038Z,1022.03
2019-02-05T10:37:10.026Z,1022.04
2019-02-05T10:38:10.015Z,1022.00
2019-02-05T10:39:10.004Z,1022.07
2019-02-05T10:40:09.995Z,1022.02
2019-02-05T10:41:09.984Z,1022.01
2019-02-05T10:42:09.971Z,1022.06
2019-02-05T10:43:10.039Z,1022.03
2019-02-05T10:44:09.954Z,1022.02
2019-02-05T10:45:09.942Z,1022.05
2019-02-05T10:46:09.932Z,1022.06
2019-02-05T10:47:09.919Z,1022.01
2019-02-05T10:48:09.908Z,1021.99
2019-02-05T10:49:09.898Z,1022.01
2019-02-05T10:50:09.889Z,1021.99
2019-02-05T10:51:09.881Z,1022.00
2019-02-05T10:52:09.869Z,1021.99
2019-02-05T10:53:09.856Z,1022.03
2019-02-05T10:54:09.846Z,1022.01
2019-02-05T10:55:09.836Z,1021.99
2019-02-05T10:56:09.825Z,1022.00
2019-02-05T10:57:09.814Z,1021.99
2019-02-05T10:58:09.806Z,1021.97
2019-02-05T10:59:09.791Z,1021.98
2019-02-05T11:00:09.784Z,1022.00
2019-02-05T11:01:09.774Z,1021.95
2019-02-05T11:02:09.762Z,1021.98
2019-02-05T11:03:09.750Z,1021.97
2019-02-05T11:04:09.739Z,1021.93
2019-02-05T11:05:09.730Z,1021.92
2019-02-05T11:06:09.718Z,1021.95
2019-02-05T11:07:09.709Z,1021.95
2019-02-05T11:08:09.695Z,1021.95
2019-02-05T11:09:09.685Z,1021.98
2019-02-05T11:10:09.675Z,1021.94
2019-02-05T11:11:09.665Z,1021.97
2019-02-05T11:12:09.657Z,1021.97
2019-02-05T11:13:09.644Z,1022.01
2019-02-05T11:14:09.638Z,1022.02
2019-02-05T11:15:09.623Z,1022.00
2019-02-05T11:16:09.613Z,1022.03
2019-02-05T11:17:09.603Z,1021.97
2019-02-05T11:18:09.592Z,1021.99
2019-02-05T11:19:09.579Z,1021.99
2019-02-05T11:20:09.571Z,1022.02
2019-02-05T11:21:09.562Z,1021.97
2019-02-05T11:22:09.549Z,1022.00
2019-02-05T11:23:09.541Z,1022.01
2019-02-05T11:24:09.527Z,1022.00
2019-02-05T11:25:09.518Z,1021.93
2019-02-05T11:26:09.509Z,1021.92
2019-02-05T11:27:09.496Z,1021.87
2019-02-05T11:28:09.485Z,1021.87
2019-02-05T11:29:09.473Z,1021.94
2019-02-05T11:30:19.676Z,1021.89
2019-02-05T11:31:10.453Z,1021.94
2019-02-05T11:32:09.442Z,1021.89
2019-02-05T11:33:09.434Z,1021.93
2019-02-05T11:34:09.422Z,1021.91
2019-02-05T11:35:09.410Z,1021.91
2019-02-05T11:36:09.399Z,1021.91
2019-02-05T11:37:09.388Z,1021.89
2019-02-05T11:38:09.378Z,1021.93
2019-02-05T11:39:09.369Z,1021.89
2019-02-05T11:40:09.359Z,1021.92
2019-02-05T11:41:09.346Z,1021.95
2019-02-05T11:42:09.336Z,1021.97
2019-02-05T11:43:09.325Z,1021.94
2019-02-05T11:44:09.317Z,1021.93
2019-02-05T11:45:09.304Z,1021.94
2019-02-05T11:46:09.297Z,1021.96
2019-02-05T11:47:09.284Z,1021.88
2019-02-05T11:48:09.279Z,1021.91
2019-02-05T11:49:09.264Z,1021.93
2019-02-05T11:50:09.252Z,1021.99
2019-02-05T11:51:09.241Z,1021.91
2019-02-05T11:52:09.822Z,1021.91
2019-02-05T11:53:09.223Z,1021.95
2019-02-05T11:54:09.209Z,1021.95
2019-02-05T11:55:09.202Z,1021.97
2019-02-05T11:56:09.189Z,1021.97
2019-02-05T11:57:09.178Z,1021.94
2019-02-05T11:58:09.169Z,1021.97
2019-02-05T11:59:09.158Z,1021.90
2019-02-05T12:00:09.145Z,1021.93
2019-02-05T12:01:09.139Z,1021.92
2019-02-05T12:02:09.126Z,1021.92
2019-02-05T12:03:09.113Z,1021.92
2019-02-05T12:04:09.102Z,1021.93
2019-02-05T12:05:09.093Z,1021.90